Time;durP1;ratioP1;P1;durP2;ratioP2;P2;SDS_P1;SDS_P2;PMS_P1;PMS_P2;Temp;Humidity;BMP_temperature;BMP_pressure;BME280_temperature;BME280_humidity;BME280_pressure;Samples;Min_cycle;Max_cycle;Signal;HPM_P1;HPM_P2
2021/07/06 00:00:09;;;;;;;4.10;2.70;;;22.90;70.10;;;;;;5063331;28;20214;-66
2021/07/06 00:02:37;;;;;;;5.07;3.03;;;22.80;70.70;;;;;;5063050;28;20226;-66
2021/07/06 00:05:04;;;;;;;3.30;2.93;;;22.70;71.00;;;;;;5065130;28;20230;-66
2021/07/06 00:07:31;;;;;;;4.83;2.90;;;22.60;71.50;;;;;;5061736;28;20831;-66
2021/07/06 00:09:59;;;;;;;7.27;3.17;;;22.50;71.90;;;;;;5065294;28;20228;-66
2021/07/06 00:12:27;;;;;;;7.40;3.67;;;22.50;72.30;;;;;;5062904;28;20252;-66
2021/07/06 00:14:54;;;;;;;4.13;3.17;;;22.40;72.60;;;;;;5063122;28;20624;-66
2021/07/06 00:17:22;;;;;;;4.13;3.73;;;22.40;73.10;;;;;;5063045;28;20279;-65
2021/07/06 00:19:50;;;;;;;4.20;3.30;;;22.30;73.20;;;;;;5065479;28;20288;-65
2021/07/06 00:22:17;;;;;;;5.20;3.43;;;22.30;73.80;;;;;;5064704;28;20602;-65
2021/07/06 00:24:45;;;;;;;3.97;3.57;;;22.20;74.10;;;;;;5061457;28;20242;-65
2021/07/06 00:27:12;;;;;;;3.67;3.37;;;22.10;74.40;;;;;;5064831;28;20213;-65
2021/07/06 00:29:40;;;;;;;4.00;3.60;;;22.10;74.70;;;;;;5062506;28;20229;-65
2021/07/06 00:32:07;;;;;;;4.23;3.80;;;22.00;75.30;;;;;;5059804;28;20218;-65
2021/07/06 00:34:35;;;;;;;5.63;3.60;;;22.00;75.60;;;;;;5063516;28;20214;-65
2021/07/06 00:37:02;;;;;;;4.80;4.30;;;22.00;75.80;;;;;;5062398;28;20222;-65
2021/07/06 00:39:29;;;;;;;4.50;4.10;;;21.90;76.20;;;;;;5064264;28;20251;-65
2021/07/06 00:41:56;;;;;;;4.57;4.17;;;21.90;76.60;;;;;;5059241;28;20629;-65
2021/07/06 00:44:23;;;;;;;5.60;3.77;;;21.80;76.90;;;;;;5061045;28;20849;-65
2021/07/06 00:46:50;;;;;;;8.17;4.47;;;21.80;77.00;;;;;;5061793;28;20218;-65
2021/07/06 00:49:17;;;;;;;4.57;3.97;;;21.80;77.30;;;;;;5063835;28;20245;-65
2021/07/06 00:51:44;;;;;;;4.37;4.00;;;21.80;77.40;;;;;;5062793;28;20206;-65
2021/07/06 00:54:11;;;;;;;4.70;4.40;;;21.80;77.70;;;;;;5062723;28;20279;-65
2021/07/06 00:56:39;;;;;;;5.37;4.87;;;21.70;77.70;;;;;;5060782;28;20639;-65
2021/07/06 00:59:06;;;;;;;4.93;4.53;;;21.70;78.10;;;;;;5064690;28;20213;-66
2021/07/06 01:01:35;;;;;;;6.67;4.50;;;21.70;78.20;;;;;;5061294;28;20276;-65
2021/07/06 01:04:03;;;;;;;5.00;4.60;;;21.70;78.60;;;;;;5061213;28;20795;-65
2021/07/06 01:06:31;;;;;;;6.30;4.70;;;21.60;78.70;;;;;;5063653;28;20213;-65
2021/07/06 01:08:59;;;;;;;7.33;4.77;;;21.60;78.90;;;;;;5062665;28;20256;-65
2021/07/06 01:11:26;;;;;;;5.37;4.83;;;21.60;79.00;;;;;;5060756;28;20586;-65
2021/07/06 01:13:53;;;;;;;6.20;4.73;;;21.60;79.20;;;;;;5068359;28;20294;-65
2021/07/06 01:16:20;;;;;;;8.23;5.03;;;21.60;79.40;;;;;;5060804;28;20675;-65
2021/07/06 01:18:47;;;;;;;5.60;5.20;;;21.60;79.40;;;;;;5064452;28;20656;-65
2021/07/06 01:21:14;;;;;;;6.43;4.87;;;21.60;79.60;;;;;;5060704;28;20248;-65
2021/07/06 01:23:42;;;;;;;7.10;5.07;;;21.50;79.80;;;;;;5063681;28;20234;-65
2021/07/06 01:26:09;;;;;;;8.00;5.40;;;21.50;80.00;;;;;;5063181;28;20221;-65
2021/07/06 01:28:39;;;;;;;6.30;5.70;;;21.50;80.10;;;;;;5062409;28;20266;-65
2021/07/06 01:31:06;;;;;;;5.87;5.37;;;21.50;80.40;;;;;;5061920;28;20210;-66
2021/07/06 01:33:35;;;;;;;5.93;5.30;;;21.50;80.40;;;;;;5064338;28;20210;-66
2021/07/06 01:36:07;;;;;;;5.87;5.37;;;21.50;80.50;;;;;;5060744;28;20206;-66
2021/07/06 01:38:35;;;;;;;5.47;4.97;;;21.50;80.70;;;;;;5063363;28;20267;-66
2021/07/06 01:41:05;;;;;;;6.03;5.53;;;21.50;80.80;;;;;;5058942;28;20214;-66
2021/07/06 01:43:33;;;;;;;10.60;5.03;;;21.60;80.90;;;;;;5064430;28;20224;-66
2021/07/06 01:46:02;;;;;;;4.60;4.20;;;21.60;80.70;;;;;;5061102;28;20240;-66
2021/07/06 01:48:29;;;;;;;5.80;4.43;;;21.60;80.40;;;;;;5060705;28;20287;-66
2021/07/06 01:50:58;;;;;;;7.47;4.70;;;21.60;80.30;;;;;;5063623;28;20605;-66
2021/07/06 01:53:25;;;;;;;6.70;5.27;;;21.60;80.00;;;;;;5061944;28;20210;-66
2021/07/06 01:55:53;;;;;;;6.30;4.63;;;21.60;80.00;;;;;;5062258;28;20646;-66
2021/07/06 01:58:22;;;;;;;6.00;5.47;;;21.60;80.10;;;;;;5062885;28;20272;-66
2021/07/06 02:01:00;;;;;;;6.47;5.87;;;21.60;80.20;;;;;;5061106;28;20221;-66
2021/07/06 02:03:27;;;;;;;7.10;5.07;;;21.60;80.40;;;;;;5060317;28;20220;-66
2021/07/06 02:05:59;;;;;;;14.27;6.17;;;21.60;80.60;;;;;;5062184;28;20225;-66
2021/07/06 02:08:27;;;;;;;10.47;6.07;;;21.60;80.70;;;;;;5061160;28;20648;-66
2021/07/06 02:10:55;;;;;;;6.03;5.57;;;21.60;80.80;;;;;;5060082;28;20211;-66
2021/07/06 02:13:24;;;;;;;7.33;6.63;;;21.50;81.20;;;;;;5065190;28;20214;-66
2021/07/06 02:15:53;;;;;;;7.23;6.53;;;21.50;81.60;;;;;;5065175;28;20206;-66
2021/07/06 02:18:22;;;;;;;7.93;7.20;;;21.50;82.00;;;;;;5067661;28;20661;-66
2021/07/06 02:20:55;;;;;;;6.50;5.90;;;21.50;82.10;;;;;;5064991;28;20222;-66
2021/07/06 02:23:26;;;;;;;7.60;6.87;;;21.50;82.10;;;;;;5063924;28;20214;-66
2021/07/06 02:25:55;;;;;;;7.43;6.83;;;21.50;82.30;;;;;;5066550;28;20268;-66
2021/07/06 02:28:25;;;;;;;7.97;7.27;;;21.50;82.40;;;;;;5065671;28;20211;-66
2021/07/06 02:30:52;;;;;;;8.40;7.70;;;21.50;82.60;;;;;;5062815;28;20241;-66
2021/07/06 02:33:20;;;;;;;8.20;7.10;;;21.50;82.80;;;;;;5068322;28;20282;-66
2021/07/06 02:35:48;;;;;;;8.77;7.30;;;21.50;83.00;;;;;;5067671;28;20202;-66
2021/07/06 02:38:15;;;;;;;7.70;7.00;;;21.50;83.20;;;;;;5063825;28;20284;-66
2021/07/06 02:40:45;;;;;;;8.93;8.07;;;21.50;83.30;;;;;;5066324;28;20222;-66
2021/07/06 02:43:12;;;;;;;8.37;7.60;;;21.50;83.40;;;;;;5065133;28;20219;-66
2021/07/06 02:45:39;;;;;;;9.30;8.60;;;21.50;83.40;;;;;;5064874;28;20297;-66
2021/07/06 02:48:08;;;;;;;8.63;7.73;;;21.50;83.50;;;;;;5067298;28;20207;-66
2021/07/06 02:50:39;;;;;;;8.83;7.53;;;21.40;83.40;;;;;;5066716;28;20217;-66
2021/07/06 02:53:10;;;;;;;8.63;7.70;;;21.40;83.70;;;;;;5063873;28;20210;-66
2021/07/06 02:55:39;;;;;;;9.77;8.87;;;21.40;83.90;;;;;;5065358;28;20221;-66
2021/07/06 02:58:08;;;;;;;7.73;7.00;;;21.40;84.00;;;;;;5065479;28;20268;-66
2021/07/06 03:00:36;;;;;;;7.87;7.10;;;21.40;83.90;;;;;;5064225;28;20283;-66
2021/07/06 03:03:06;;;;;;;8.33;7.63;;;21.40;83.60;;;;;;5066901;28;20223;-66
2021/07/06 03:05:33;;;;;;;9.70;8.73;;;21.40;83.50;;;;;;5067633;28;20288;-66
2021/07/06 03:08:01;;;;;;;10.40;9.33;;;21.40;83.60;;;;;;5065806;28;20275;-66
2021/07/06 03:10:32;;;;;;;8.83;7.97;;;21.40;83.80;;;;;;5066448;28;20213;-66
2021/07/06 03:12:59;;;;;;;8.83;8.03;;;21.40;83.80;;;;;;5061762;28;20270;-66
2021/07/06 03:15:29;;;;;;;10.23;8.77;;;21.40;83.60;;;;;;5063293;28;20218;-66
2021/07/06 03:17:56;;;;;;;9.87;8.00;;;21.30;83.40;;;;;;5062743;28;20307;-66
2021/07/06 03:20:26;;;;;;;12.87;11.60;;;21.30;83.30;;;;;;5065933;28;20660;-66
2021/07/06 03:22:53;;;;;;;12.90;11.70;;;21.30;83.60;;;;;;5065622;28;20205;-66
2021/07/06 03:25:23;;;;;;;16.87;10.63;;;21.30;84.00;;;;;;5063657;28;20741;-66
2021/07/06 03:27:50;;;;;;;12.90;10.57;;;21.30;84.10;;;;;;5063721;28;20276;-66
2021/07/06 03:30:20;;;;;;;13.67;12.47;;;21.30;84.10;;;;;;5065698;28;20217;-66
2021/07/06 03:32:48;;;;;;;14.67;13.27;;;21.30;84.60;;;;;;5063107;28;20206;-66
2021/07/06 03:35:16;;;;;;;15.50;14.10;;;21.30;85.10;;;;;;5065137;28;20214;-66
2021/07/06 03:37:43;;;;;;;17.27;13.80;;;21.20;85.40;;;;;;5064096;28;20218;-66
2021/07/06 03:40:12;;;;;;;15.63;14.23;;;21.20;85.80;;;;;;5068786;28;20295;-66
2021/07/06 03:42:39;;;;;;;17.33;13.67;;;21.20;86.10;;;;;;5062126;28;20229;-66
2021/07/06 03:45:09;;;;;;;14.23;12.93;;;21.10;86.20;;;;;;5065495;28;20291;-65
2021/07/06 03:47:37;;;;;;;14.23;12.83;;;21.10;86.30;;;;;;5062016;28;20213;-65
2021/07/06 03:50:07;;;;;;;13.90;12.43;;;21.10;86.30;;;;;;5063239;28;20234;-65
2021/07/06 03:52:35;;;;;;;13.83;12.50;;;21.20;86.40;;;;;;5064195;28;20545;-65
2021/07/06 03:55:03;;;;;;;12.90;11.67;;;21.20;86.30;;;;;;5064193;28;20222;-65
2021/07/06 03:57:31;;;;;;;12.30;11.17;;;21.20;86.40;;;;;;5063019;28;20234;-65
2021/07/06 04:00:03;;;;;;;11.70;10.67;;;21.20;86.20;;;;;;5065676;28;20213;-66
2021/07/06 04:02:30;;;;;;;11.83;10.83;;;21.30;85.80;;;;;;5063224;28;20214;-66
2021/07/06 04:04:57;;;;;;;10.93;9.97;;;21.30;85.40;;;;;;5061986;28;20234;-66
2021/07/06 04:07:24;;;;;;;11.80;10.60;;;21.30;85.00;;;;;;5065973;28;20218;-66
2021/07/06 04:09:51;;;;;;;13.70;10.13;;;21.30;84.80;;;;;;5061861;28;20272;-66
2021/07/06 04:12:19;;;;;;;12.77;10.50;;;21.30;85.20;;;;;;5064152;28;20205;-66
2021/07/06 04:14:46;;;;;;;13.90;12.50;;;21.40;84.30;;;;;;5062068;28;20214;-66
2021/07/06 04:17:13;;;;;;;13.13;11.93;;;21.40;84.40;;;;;;5065385;28;20245;-66
2021/07/06 04:19:40;;;;;;;17.47;12.43;;;21.30;84.60;;;;;;5062252;28;20700;-66
2021/07/06 04:22:07;;;;;;;14.37;12.10;;;21.30;84.60;;;;;;5064589;28;20283;-66
2021/07/06 04:24:34;;;;;;;15.07;13.67;;;21.40;84.40;;;;;;5063092;28;20237;-66
2021/07/06 04:27:02;;;;;;;16.43;14.93;;;21.40;84.60;;;;;;5060526;28;20225;-66
2021/07/06 04:29:30;;;;;;;16.73;15.10;;;21.50;85.40;;;;;;5062732;28;20218;-66
2021/07/06 04:31:57;;;;;;;16.67;15.03;;;21.50;85.80;;;;;;5064508;28;20236;-66
2021/07/06 04:34:24;;;;;;;16.40;14.90;;;21.60;86.00;;;;;;5061661;28;20215;-66
2021/07/06 04:36:52;;;;;;;16.87;15.33;;;21.70;86.00;;;;;;5061452;28;20226;-66
2021/07/06 04:39:19;;;;;;;16.57;15.07;;;21.80;85.90;;;;;;5065211;28;20216;-66
2021/07/06 04:41:46;;;;;;;17.10;15.40;;;21.90;86.00;;;;;;5063052;28;20228;-66
2021/07/06 04:44:14;;;;;;;16.53;15.07;;;22.00;86.00;;;;;;5062960;28;20222;-66
2021/07/06 04:46:42;;;;;;;16.30;14.70;;;22.00;85.90;;;;;;5061177;28;20226;-66
2021/07/06 04:49:09;;;;;;;16.37;14.67;;;22.10;86.00;;;;;;5061840;28;20823;-66
2021/07/06 04:51:36;;;;;;;14.30;12.67;;;22.20;86.00;;;;;;5061007;28;20584;-66
2021/07/06 04:54:03;;;;;;;16.27;14.67;;;22.30;85.70;;;;;;5060988;28;20210;-66
2021/07/06 04:56:30;;;;;;;16.80;15.17;;;22.50;85.50;;;;;;5064389;28;20221;-66
2021/07/06 04:58:57;;;;;;;16.30;14.80;;;22.60;85.90;;;;;;5062017;28;20222;-66
2021/07/06 05:01:25;;;;;;;17.53;15.77;;;22.80;84.90;;;;;;5063069;28;20275;-66
2021/07/06 05:03:52;;;;;;;17.83;16.23;;;22.90;84.50;;;;;;5062821;28;20218;-66
2021/07/06 05:06:20;;;;;;;16.63;15.00;;;23.00;84.20;;;;;;5062177;28;20260;-66
2021/07/06 05:08:48;;;;;;;16.83;15.37;;;23.20;83.90;;;;;;5064144;28;20217;-66
2021/07/06 05:11:15;;;;;;;16.33;14.83;;;23.30;83.50;;;;;;5061019;28;20214;-66
2021/07/06 05:13:43;;;;;;;16.73;15.13;;;23.50;82.80;;;;;;5065173;28;20206;-66
2021/07/06 05:16:10;;;;;;;16.80;15.30;;;23.70;82.10;;;;;;5061452;28;20210;-66
2021/07/06 05:18:38;;;;;;;16.43;14.83;;;23.70;81.90;;;;;;5066132;28;20240;-66
2021/07/06 05:21:05;;;;;;;16.00;14.60;;;23.80;81.80;;;;;;5062462;28;20291;-66
2021/07/06 05:23:32;;;;;;;16.30;14.90;;;23.90;81.70;;;;;;5063179;28;20261;-67
2021/07/06 05:25:59;;;;;;;16.80;15.20;;;23.90;81.60;;;;;;5061603;28;20233;-67
2021/07/06 05:28:26;;;;;;;15.30;13.93;;;24.00;81.50;;;;;;5064264;28;20282;-66
2021/07/06 05:30:53;;;;;;;13.13;12.03;;;24.10;81.40;;;;;;5060779;28;20218;-66
2021/07/06 05:33:20;;;;;;;15.60;14.10;;;24.30;81.10;;;;;;5064004;28;20260;-66
2021/07/06 05:35:47;;;;;;;14.80;13.40;;;24.40;80.80;;;;;;5061556;28;20218;-66
2021/07/06 05:38:14;;;;;;;13.63;12.53;;;24.60;80.50;;;;;;5063334;28;20655;-66
2021/07/06 05:41:01;;;;;;;12.50;11.40;;;24.80;80.00;;;;;;5058611;28;20217;-66
2021/07/06 05:43:29;;;;;;;13.37;12.17;;;25.00;79.50;;;;;;5063287;28;20218;-66
2021/07/06 05:45:56;;;;;;;11.23;10.23;;;25.30;78.80;;;;;;5062368;28;20234;-66
2021/07/06 05:48:23;;;;;;;11.00;10.00;;;25.60;77.90;;;;;;5063394;28;20217;-66
2021/07/06 05:50:50;;;;;;;11.50;10.50;;;25.80;76.80;;;;;;5067196;28;20205;-66
2021/07/06 05:53:17;;;;;;;11.67;10.57;;;26.10;75.70;;;;;;5065234;28;20206;-66
2021/07/06 05:55:44;;;;;;;11.10;10.00;;;26.30;74.90;;;;;;5068236;28;20213;-66
2021/07/06 05:58:12;;;;;;;9.50;8.67;;;26.40;74.10;;;;;;5064456;28;20226;-66
2021/07/06 06:00:39;;;;;;;9.60;8.70;;;26.60;73.30;;;;;;5072971;28;20651;-66
2021/07/06 06:03:12;;;;;;;10.03;9.13;;;26.70;72.90;;;;;;5068385;28;20226;-66
2021/07/06 06:05:41;;;;;;;11.50;10.20;;;26.90;71.90;;;;;;5064503;28;20230;-66
2021/07/06 06:08:09;;;;;;;10.23;9.13;;;27.00;70.30;;;;;;5066056;28;20221;-66
2021/07/06 06:10:36;;;;;;;9.43;8.53;;;27.10;70.20;;;;;;5066692;28;20233;-66
2021/07/06 06:13:04;;;;;;;8.27;7.53;;;27.10;69.60;;;;;;5067588;28;20206;-66
2021/07/06 06:15:31;;;;;;;7.80;7.03;;;27.30;69.50;;;;;;5065793;28;20241;-66
2021/07/06 06:17:58;;;;;;;7.83;7.17;;;27.40;69.10;;;;;;5066203;28;20249;-66
2021/07/06 06:20:26;;;;;;;7.13;6.53;;;27.60;68.20;;;;;;5064030;28;20225;-66
2021/07/06 06:22:52;;;;;;;8.87;7.47;;;27.80;67.50;;;;;;5065906;28;20620;-66
2021/07/06 06:25:19;;;;;;;8.03;7.27;;;27.90;66.80;;;;;;5067871;28;20671;-66
2021/07/06 06:27:46;;;;;;;7.07;6.43;;;28.00;65.20;;;;;;5065839;28;20264;-66
2021/07/06 06:30:15;;;;;;;8.17;6.20;;;28.00;63.40;;;;;;5066147;28;20218;-66
2021/07/06 06:32:42;;;;;;;9.10;6.50;;;28.10;63.40;;;;;;5067594;28;20532;-66
2021/07/06 06:35:09;;;;;;;6.23;5.63;;;28.20;63.40;;;;;;5065499;28;20224;-66
2021/07/06 06:37:37;;;;;;;6.23;5.70;;;28.30;62.60;;;;;;5065923;28;20543;-66
2021/07/06 06:40:06;;;;;;;6.30;5.70;;;28.50;61.90;;;;;;5068945;28;20207;-66
2021/07/06 06:42:33;;;;;;;8.03;5.33;;;28.70;61.30;;;;;;5063235;28;20213;-66
2021/07/06 06:45:00;;;;;;;6.67;4.67;;;28.80;60.90;;;;;;5069178;28;20275;-66
2021/07/06 06:47:26;;;;;;;6.10;4.63;;;28.90;59.50;;;;;;5063816;28;20214;-66
2021/07/06 06:49:54;;;;;;;7.23;4.50;;;29.00;58.90;;;;;;5066022;28;20206;-66
2021/07/06 06:52:22;;;;;;;3.97;3.60;;;29.10;58.70;;;;;;5065999;28;20214;-66
2021/07/06 06:54:49;;;;;;;12.17;5.20;;;29.20;58.70;;;;;;5063774;28;20240;-66
2021/07/06 06:57:16;;;;;;;5.07;4.53;;;29.40;59.00;;;;;;5065143;28;20217;-66
2021/07/06 06:59:43;;;;;;;5.57;3.90;;;29.50;58.80;;;;;;5065875;28;20210;-66
2021/07/06 07:02:22;;;;;;;4.63;3.47;;;29.70;58.40;;;;;;5063566;28;20271;-66
2021/07/06 07:04:51;;;;;;;4.20;3.30;;;29.80;57.00;;;;;;5063347;28;20225;-66
2021/07/06 07:07:21;;;;;;;3.33;2.70;;;29.90;56.80;;;;;;5065687;28;20210;-66
2021/07/06 07:09:49;;;;;;;4.83;4.30;;;30.00;56.80;;;;;;5066160;28;20283;-66
2021/07/06 07:12:17;;;;;;;3.93;3.53;;;30.00;55.70;;;;;;5062645;28;20221;-66
2021/07/06 07:14:45;;;;;;;3.50;3.20;;;30.00;56.10;;;;;;5064933;28;20222;-66
2021/07/06 07:17:12;;;;;;;10.03;2.93;;;30.00;55.80;;;;;;5063380;28;20242;-66
2021/07/06 07:19:39;;;;;;;3.23;2.97;;;30.10;55.20;;;;;;5062098;28;20259;-66
2021/07/06 07:22:07;;;;;;;3.03;2.83;;;30.20;55.30;;;;;;5064734;28;20218;-66
2021/07/06 07:24:34;;;;;;;3.40;3.10;;;30.50;55.30;;;;;;5063252;28;20206;-67
2021/07/06 07:27:02;;;;;;;3.80;2.83;;;30.80;54.30;;;;;;5062033;28;20719;-67
2021/07/06 07:29:30;;;;;;;3.63;3.10;;;30.80;54.10;;;;;;5065339;28;20213;-67
2021/07/06 07:31:57;;;;;;;2.90;2.70;;;30.70;54.10;;;;;;5065982;28;20221;-67
2021/07/06 07:34:24;;;;;;;3.23;2.43;;;30.70;53.60;;;;;;5063807;28;20210;-67
2021/07/06 07:36:51;;;;;;;4.00;1.63;;;30.80;54.00;;;;;;5063961;28;20299;-67
2021/07/06 07:39:18;;;;;;;1.73;1.63;;;31.10;53.20;;;;;;5066115;28;20215;-67
2021/07/06 07:41:45;;;;;;;2.97;1.80;;;31.30;52.10;;;;;;5064319;28;20517;-67
2021/07/06 07:44:12;;;;;;;2.70;1.80;;;31.60;52.10;;;;;;5065059;28;20247;-67
2021/07/06 07:46:39;;;;;;;5.30;2.10;;;31.90;52.00;;;;;;5062847;28;20303;-67
2021/07/06 07:49:06;;;;;;;2.40;2.20;;;32.10;51.20;;;;;;5064609;28;20271;-67
2021/07/06 07:51:34;;;;;;;2.57;2.13;;;32.30;51.10;;;;;;5064591;28;20210;-67
2021/07/06 07:54:01;;;;;;;4.33;2.80;;;32.40;50.60;;;;;;5062493;28;20221;-67
2021/07/06 07:56:28;;;;;;;2.30;2.10;;;32.50;50.50;;;;;;5064596;28;20228;-67
2021/07/06 07:58:54;;;;;;;2.07;1.97;;;32.60;50.10;;;;;;5064383;28;20229;-67
2021/07/06 08:01:21;;;;;;;15.60;2.80;;;32.60;49.60;;;;;;5062694;28;20666;-67
2021/07/06 08:03:49;;;;;;;6.60;2.10;;;32.50;50.10;;;;;;5064696;28;20209;-67
2021/07/06 08:06:16;;;;;;;5.53;2.00;;;32.60;50.60;;;;;;5064289;28;20659;-67
2021/07/06 08:08:43;;;;;;;2.13;1.77;;;32.80;50.40;;;;;;5062256;28;20556;-67
2021/07/06 08:11:10;;;;;;;1.47;1.33;;;32.90;50.70;;;;;;5061803;28;20865;-67
2021/07/06 08:13:37;;;;;;;4.80;1.77;;;33.10;49.60;;;;;;5064835;28;20206;-67
2021/07/06 08:16:04;;;;;;;4.60;1.53;;;33.30;49.90;;;;;;5064646;28;20549;-67
2021/07/06 08:18:31;;;;;;;1.57;1.33;;;33.40;48.60;;;;;;5062260;28;20687;-67
2021/07/06 08:20:59;;;;;;;1.20;1.10;;;33.50;48.00;;;;;;5062797;28;20210;-67
2021/07/06 08:23:26;;;;;;;1.50;1.40;;;33.50;47.40;;;;;;5061895;28;20275;-67
2021/07/06 08:25:53;;;;;;;3.87;1.47;;;33.50;47.00;;;;;;5063847;28;20244;-67
2021/07/06 08:28:22;;;;;;;1.50;1.40;;;33.50;47.50;;;;;;5064290;28;20267;-67
2021/07/06 08:30:50;;;;;;;3.33;1.60;;;33.50;47.10;;;;;;5061895;28;20217;-67
2021/07/06 08:33:17;;;;;;;5.37;1.30;;;33.30;47.80;;;;;;5063597;28;20271;-67
2021/07/06 08:35:44;;;;;;;1.60;1.50;;;33.40;47.80;;;;;;5064527;28;20537;-67
2021/07/06 08:38:15;;;;;;;5.77;1.77;;;33.40;46.50;;;;;;5058086;28;20236;-67
2021/07/06 08:40:43;;;;;;;3.33;1.80;;;33.40;46.80;;;;;;5062793;28;20229;-67
2021/07/06 08:43:11;;;;;;;1.63;1.33;;;33.60;46.40;;;;;;5064391;28;20224;-67
2021/07/06 08:45:38;;;;;;;6.53;4.33;;;33.60;46.10;;;;;;5061639;28;20230;-67
2021/07/06 08:48:07;;;;;;;3.80;3.50;;;33.60;46.40;;;;;;5062376;28;20206;-67
2021/07/06 08:50:34;;;;;;;2.53;2.00;;;33.80;47.30;;;;;;5058598;28;20215;-67
2021/07/06 08:53:02;;;;;;;5.00;3.43;;;34.10;46.80;;;;;;5062779;28;20304;-66
2021/07/06 08:55:29;;;;;;;2.60;2.23;;;34.30;46.30;;;;;;5064161;28;20271;-66
2021/07/06 08:57:56;;;;;;;2.87;1.40;;;34.50;45.30;;;;;;5059600;28;20213;-66
2021/07/06 09:00:23;;;;;;;1.80;1.70;;;34.50;45.50;;;;;;5062959;28;20207;-66
2021/07/06 09:02:58;;;;;;;5.17;3.77;;;34.40;45.30;;;;;;5061747;28;20213;-66
2021/07/06 09:05:25;;;;;;;6.80;2.03;;;33.90;45.20;;;;;;5062736;28;20218;-66
2021/07/06 09:07:52;;;;;;;2.03;1.70;;;33.70;46.00;;;;;;5063786;28;20214;-65
2021/07/06 09:10:22;;;;;;;2.13;1.70;;;33.70;46.10;;;;;;5060978;28;20214;-66
2021/07/06 09:12:49;;;;;;;1.70;1.60;;;33.70;46.90;;;;;;5065725;28;20216;-66
2021/07/06 09:15:23;;;;;;;1.70;1.50;;;33.90;46.90;;;;;;5064082;28;20213;-66
2021/07/06 09:18:10;;;;;;;3.50;2.03;;;33.90;45.50;;;;;;5062452;28;20238;-66
2021/07/06 09:20:39;;;;;;;2.63;2.30;;;33.90;46.70;;;;;;5062914;28;20221;-66
2021/07/06 09:23:27;;;;;;;3.63;1.70;;;33.90;47.00;;;;;;5062104;28;20272;-65
2021/07/06 09:26:05;;;;;;;1.50;1.40;;;33.90;48.20;;;;;;5065304;28;20238;-65
2021/07/06 09:28:35;;;;;;;3.87;1.40;;;34.10;47.50;;;;;;5064924;28;20274;-65
2021/07/06 09:31:20;;;;;;;3.17;2.30;;;34.40;46.30;;;;;;5065706;28;20241;-66
2021/07/06 09:34:10;;;;;;;3.60;1.53;;;34.80;46.00;;;;;;5065621;28;20218;-66
2021/07/06 09:36:56;;;;;;;3.77;2.30;;;35.10;44.00;;;;;;5066370;28;20213;-66
2021/07/06 09:39:24;;;;;;;1.60;1.50;;;35.20;44.60;;;;;;5066170;28;20301;-66
2021/07/06 09:44:42;;;;;;;3.27;1.70;;;35.60;43.30;;;;;;5074805;28;20208;-66
2021/07/06 09:47:13;;;;;;;1.50;1.40;;;35.80;44.10;;;;;;5067207;28;20295;-66
2021/07/06 09:49:53;;;;;;;1.43;1.33;;;36.00;43.50;;;;;;5065517;28;20249;-65
2021/07/06 09:52:21;;;;;;;4.87;1.67;;;36.10;43.40;;;;;;5067847;28;20237;-66
2021/07/06 09:54:54;;;;;;;2.60;1.40;;;36.30;43.00;;;;;;5068248;28;20215;-66
2021/07/06 10:00:09;;;;;;;4.80;1.60;;;36.40;42.30;;;;;;5064646;28;20222;-66
2021/07/06 10:02:37;;;;;;;4.23;1.47;;;36.40;42.50;;;;;;5064977;28;20308;-66
2021/07/06 10:05:08;;;;;;;4.33;1.60;;;36.50;42.50;;;;;;5066801;28;20210;-66
2021/07/06 10:07:38;;;;;;;2.83;1.57;;;36.60;42.20;;;;;;5067761;28;20233;-66
2021/07/06 10:10:14;;;;;;;2.73;2.10;;;36.70;41.60;;;;;;5065187;28;20215;-66
2021/07/06 10:12:43;;;;;;;3.33;1.40;;;36.70;40.50;;;;;;5065246;28;20261;-66
2021/07/06 10:15:12;;;;;;;3.97;1.90;;;36.50;41.10;;;;;;5068600;28;20210;-66
2021/07/06 10:17:45;;;;;;;2.43;1.60;;;36.40;41.40;;;;;;5064334;28;20276;-66
2021/07/06 10:20:24;;;;;;;3.07;1.60;;;36.30;41.50;;;;;;5066237;28;20225;-66
2021/07/06 10:22:58;;;;;;;1.60;1.50;;;36.30;41.00;;;;;;5067027;28;20214;-66
2021/07/06 10:25:27;;;;;;;1.87;1.57;;;36.30;41.20;;;;;;5065222;28;20217;-66
2021/07/06 10:28:01;;;;;;;1.47;1.37;;;36.40;40.60;;;;;;5063235;28;20242;-66
2021/07/06 10:30:44;;;;;;;1.93;1.43;;;36.50;40.50;;;;;;5073012;28;20210;-66
2021/07/06 10:33:32;;;;;;;5.17;1.60;;;36.60;40.50;;;;;;5065785;28;20566;-65
2021/07/06 10:36:00;;;;;;;4.00;1.67;;;36.60;40.30;;;;;;5063380;28;20222;-65
2021/07/06 10:38:33;;;;;;;1.30;1.20;;;36.50;40.30;;;;;;5066815;28;20218;-65
2021/07/06 10:41:08;;;;;;;1.47;1.30;;;36.60;40.50;;;;;;5065813;28;20220;-66
2021/07/06 10:43:37;;;;;;;1.70;1.50;;;36.70;40.50;;;;;;5056657;28;20627;-66
2021/07/06 10:46:20;;;;;;;2.80;1.30;;;36.60;40.10;;;;;;5064926;28;20615;-66
2021/07/06 10:48:47;;;;;;;5.27;1.70;;;36.70;41.50;;;;;;5065317;28;20249;-65
2021/07/06 10:51:33;;;;;;;8.10;1.50;;;36.80;40.20;;;;;;5066339;28;20206;-66
2021/07/06 10:54:16;;;;;;;1.77;1.30;;;36.90;39.90;;;;;;5066670;28;20622;-66
2021/07/06 10:56:51;;;;;;;1.73;1.37;;;37.10;40.20;;;;;;5066401;28;20797;-65
2021/07/06 10:59:21;;;;;;;1.63;1.53;;;37.10;39.20;;;;;;5062132;28;20213;-65
2021/07/06 11:01:48;;;;;;;3.17;1.57;;;37.10;39.20;;;;;;5063655;28;20218;-65
2021/07/06 11:04:45;;;;;;;5.33;1.53;;;37.10;37.70;;;;;;5063518;28;20214;-66
2021/07/06 11:07:28;;;;;;;4.60;1.20;;;37.00;36.90;;;;;;5062805;28;20234;-66
2021/07/06 11:09:55;;;;;;;1.93;1.40;;;36.80;37.70;;;;;;5065035;28;20250;-66
2021/07/06 11:12:35;;;;;;;3.17;1.50;;;36.80;39.40;;;;;;5067359;28;20210;-66
2021/07/06 11:15:05;;;;;;;2.73;1.43;;;36.90;39.50;;;;;;5066270;28;20263;-66
2021/07/06 11:17:32;;;;;;;3.27;1.43;;;37.10;38.80;;;;;;5063411;28;20273;-66
2021/07/06 11:20:02;;;;;;;2.37;1.10;;;37.20;38.20;;;;;;5064923;28;20209;-66
2021/07/06 11:22:45;;;;;;;2.33;1.40;;;37.20;38.30;;;;;;5066205;28;20601;-66
2021/07/06 11:25:26;;;;;;;1.93;1.83;;;37.30;38.60;;;;;;5065809;28;20582;-66
2021/07/06 11:28:03;;;;;;;3.10;2.10;;;37.30;38.70;;;;;;5066038;28;20300;-66
2021/07/06 11:30:39;;;;;;;1.77;1.67;;;37.40;38.10;;;;;;5065034;28;20225;-66
2021/07/06 11:33:16;;;;;;;1.73;1.53;;;37.40;37.40;;;;;;5066173;28;20210;-66
2021/07/06 11:35:53;;;;;;;3.40;1.30;;;37.30;37.30;;;;;;5065062;28;20282;-66
2021/07/06 11:38:33;;;;;;;4.33;1.60;;;37.30;37.30;;;;;;5060561;28;20222;-66
2021/07/06 11:41:04;;;;;;;3.87;1.73;;;37.40;38.10;;;;;;5063329;28;20275;-66
2021/07/06 11:43:32;;;;;;;1.57;1.20;;;37.40;37.60;;;;;;5061978;28;20240;-66
2021/07/06 11:46:01;;;;;;;1.97;1.67;;;37.20;37.50;;;;;;5064727;28;20214;-66
2021/07/06 11:48:30;;;;;;;3.73;1.40;;;37.10;38.00;;;;;;5064023;28;20214;-66
2021/07/06 11:51:01;;;;;;;1.20;1.10;;;37.10;38.30;;;;;;5062673;28;20214;-66
2021/07/06 11:53:34;;;;;;;3.63;1.83;;;37.30;38.90;;;;;;5064837;28;20213;-66
2021/07/06 11:56:04;;;;;;;2.77;1.70;;;37.40;37.70;;;;;;5065428;28;20777;-66
2021/07/06 11:58:33;;;;;;;2.47;1.57;;;37.30;36.70;;;;;;5061998;28;20210;-66
2021/07/06 12:01:05;;;;;;;5.13;1.70;;;37.30;37.30;;;;;;5062972;28;20726;-66
2021/07/06 12:03:37;;;;;;;2.27;1.50;;;37.30;36.30;;;;;;5063407;28;20218;-66
2021/07/06 12:06:11;;;;;;;3.33;1.93;;;37.30;36.20;;;;;;5062551;28;20210;-66
2021/07/06 12:08:46;;;;;;;3.93;1.37;;;37.20;35.90;;;;;;5063655;28;20221;-66
2021/07/06 12:11:24;;;;;;;4.70;1.80;;;37.10;37.60;;;;;;5062269;28;20221;-66
2021/07/06 12:13:57;;;;;;;3.17;2.17;;;37.10;38.80;;;;;;5066413;28;20656;-66
2021/07/06 12:16:34;;;;;;;2.37;1.73;;;37.30;38.60;;;;;;5062362;28;20250;-66
2021/07/06 12:19:10;;;;;;;1.67;1.47;;;37.40;37.50;;;;;;5062439;28;20218;-66
2021/07/06 12:21:39;;;;;;;3.00;1.50;;;37.50;37.30;;;;;;5063162;28;20297;-66
2021/07/06 12:24:07;;;;;;;2.00;1.70;;;37.40;37.50;;;;;;5065188;28;20209;-66
2021/07/06 12:26:43;;;;;;;2.90;1.37;;;37.30;36.50;;;;;;5067789;28;20245;-66
2021/07/06 12:29:12;;;;;;;1.53;1.43;;;37.20;37.30;;;;;;5059539;28;20652;-66
2021/07/06 12:31:40;;;;;;;2.33;1.80;;;37.10;36.90;;;;;;5063695;28;20216;-66
2021/07/06 12:34:18;;;;;;;2.03;1.77;;;36.90;36.80;;;;;;5065210;28;20217;-67
2021/07/06 12:36:57;;;;;;;4.50;1.80;;;36.70;36.90;;;;;;5064304;28;20225;-66
2021/07/06 12:39:31;;;;;;;1.60;1.50;;;36.30;38.20;;;;;;5062983;28;20264;-66
2021/07/06 12:42:10;;;;;;;1.90;1.70;;;36.30;38.60;;;;;;5061781;28;20217;-66
2021/07/06 12:44:43;;;;;;;2.43;1.50;;;36.30;38.00;;;;;;5062643;28;20221;-66
2021/07/06 12:47:20;;;;;;;3.93;1.83;;;36.40;38.30;;;;;;5062420;28;20230;-66
2021/07/06 12:49:56;;;;;;;2.70;1.50;;;36.50;37.70;;;;;;5061937;28;20214;-66
2021/07/06 12:52:25;;;;;;;2.53;1.80;;;36.60;38.00;;;;;;5065552;28;20227;-66
2021/07/06 12:54:53;;;;;;;2.57;1.73;;;36.70;38.90;;;;;;5061417;28;20508;-66
2021/07/06 12:57:31;;;;;;;12.90;2.03;;;36.80;39.00;;;;;;5063398;28;20218;-66
2021/07/06 13:00:13;;;;;;;2.30;1.63;;;36.90;37.80;;;;;;5065559;28;20226;-66